WGN618 KRNO-KPDX
Flight info
| Callsign | WGN618 |
|---|---|
| Flight time | 0h 54m |
| Altitude | 34000 |
| Route | BLKJK WNDEL J92 LMT GALLO TMBRS4 |
| Aircraft | MD1F/H-SDE1E2E3FGHIJ2J3J4J5M1RWXY/LB1D1 |
Departure
| Time | 2026-05-07 22:03 |
|---|---|
| Airport | Reno Tahoe International Airport (KRNO) |
Arrival
| Time | 2026-05-07 22:57 |
|---|---|
| Airport | Portland International Airport (KPDX) |
| Time | Latitude | Longitude | Altitude | Speed | Heading |
|---|---|---|---|---|---|
| 2026-05-07 21:42 | 33.42526 | -112.01836 | 1130 ft | 0 kts | 90° |
| 2026-05-07 21:44 | 39.50857 | -119.77414 | 4430 ft | 0 kts | 179° |
| 2026-05-07 21:55 | 39.50851 | -119.77414 | 4429 ft | 2 kts | 179° |
| 2026-05-07 21:55 | 39.50827 | -119.77409 | 4429 ft | 5 kts | 155° |
| 2026-05-07 21:55 | 39.50808 | -119.77355 | 4427 ft | 7 kts | 97° |
| 2026-05-07 21:55 | 39.50805 | -119.77247 | 4427 ft | 9 kts | 89° |
| 2026-05-07 21:56 | 39.50822 | -119.77197 | 4427 ft | 9 kts | 47° |
| 2026-05-07 21:56 | 39.50881 | -119.77157 | 4427 ft | 10 kts | 10° |
| 2026-05-07 21:56 | 39.50986 | -119.77151 | 4427 ft | 11 kts | 1° |
| 2026-05-07 21:56 | 39.51043 | -119.77150 | 4427 ft | 11 kts | 2° |
| 2026-05-07 21:57 | 39.51095 | -119.77091 | 4428 ft | 10 kts | 78° |
| 2026-05-07 21:57 | 39.51099 | -119.76986 | 4428 ft | 11 kts | 90° |
| 2026-05-07 21:57 | 39.51099 | -119.76855 | 4427 ft | 17 kts | 90° |
| 2026-05-07 21:57 | 39.51099 | -119.76665 | 4426 ft | 23 kts | 90° |
| 2026-05-07 21:58 | 39.51075 | -119.76527 | 4426 ft | 9 kts | 162° |
| 2026-05-07 21:58 | 39.51006 | -119.76556 | 4426 ft | 9 kts | 200° |
| 2026-05-07 21:58 | 39.50928 | -119.76571 | 4425 ft | 10 kts | 180° |
| 2026-05-07 21:58 | 39.50835 | -119.76571 | 4423 ft | 12 kts | 179° |
| 2026-05-07 21:59 | 39.50732 | -119.76569 | 4423 ft | 14 kts | 179° |
| 2026-05-07 21:59 | 39.50608 | -119.76571 | 4422 ft | 17 kts | 180° |
| 2026-05-07 21:59 | 39.50465 | -119.76570 | 4419 ft | 21 kts | 181° |
| 2026-05-07 21:59 | 39.50281 | -119.76575 | 4420 ft | 23 kts | 179° |
| 2026-05-07 22:00 | 39.50080 | -119.76571 | 4420 ft | 25 kts | 180° |
| 2026-05-07 22:00 | 39.49857 | -119.76572 | 4418 ft | 28 kts | 172° |
| 2026-05-07 22:00 | 39.49626 | -119.76520 | 4417 ft | 31 kts | 180° |
| 2026-05-07 22:00 | 39.49366 | -119.76520 | 4417 ft | 33 kts | 180° |
| 2026-05-07 22:01 | 39.49096 | -119.76524 | 4420 ft | 26 kts | 179° |
| 2026-05-07 22:01 | 39.48959 | -119.76531 | 4420 ft | 13 kts | 214° |
| 2026-05-07 22:01 | 39.48946 | -119.76659 | 4421 ft | 12 kts | 309° |
| 2026-05-07 22:01 | 39.49012 | -119.76686 | 4420 ft | 0 kts | 358° |
| 2026-05-07 22:02 | 39.49085 | -119.76689 | 4420 ft | 38 kts | 359° |
| 2026-05-07 22:02 | 39.49731 | -119.76684 | 4420 ft | 121 kts | 359° |
| 2026-05-07 22:02 | 39.50952 | -119.76689 | 4430 ft | 184 kts | 358° |
| 2026-05-07 22:03 | 39.52446 | -119.76608 | 4949 ft | 188 kts | 0° |
| 2026-05-07 22:03 | 39.53970 | -119.76476 | 5525 ft | 194 kts | 359° |
| 2026-05-07 22:03 | 39.55330 | -119.76348 | 6178 ft | 192 kts | 0° |
| 2026-05-07 22:03 | 39.56680 | -119.76218 | 6726 ft | 191 kts | 0° |
| 2026-05-07 22:04 | 39.57998 | -119.76331 | 7143 ft | 187 kts | 329° |
| 2026-05-07 22:04 | 39.59111 | -119.77422 | 7642 ft | 182 kts | 313° |
| 2026-05-07 22:04 | 39.60188 | -119.78554 | 7803 ft | 204 kts | 324° |
| 2026-05-07 22:04 | 39.61560 | -119.79623 | 7970 ft | 234 kts | 328° |
| 2026-05-07 22:05 | 39.63133 | -119.80707 | 8276 ft | 259 kts | 330° |
| 2026-05-07 22:05 | 39.64919 | -119.81892 | 8899 ft | 275 kts | 330° |
| 2026-05-07 22:05 | 39.66888 | -119.83186 | 9767 ft | 287 kts | 330° |
| 2026-05-07 22:05 | 39.68858 | -119.84489 | 10559 ft | 301 kts | 330° |
| 2026-05-07 22:06 | 39.70931 | -119.85880 | 10869 ft | 333 kts | 330° |
| 2026-05-07 22:06 | 39.73078 | -119.87328 | 11130 ft | 363 kts | 330° |
| 2026-05-07 22:06 | 39.75461 | -119.88930 | 11386 ft | 393 kts | 331° |
| 2026-05-07 22:06 | 39.77964 | -119.90608 | 12155 ft | 406 kts | 331° |
| 2026-05-07 22:07 | 39.80523 | -119.92319 | 13121 ft | 414 kts | 331° |
| 2026-05-07 22:07 | 39.83136 | -119.94064 | 14133 ft | 420 kts | 331° |
| 2026-05-07 22:07 | 39.85788 | -119.95837 | 15129 ft | 425 kts | 332° |
| 2026-05-07 22:07 | 39.88417 | -119.97592 | 16097 ft | 430 kts | 331° |
| 2026-05-07 22:08 | 39.91141 | -119.99414 | 17046 ft | 434 kts | 332° |
| 2026-05-07 22:08 | 39.93933 | -120.01283 | 17984 ft | 439 kts | 332° |
| 2026-05-07 22:08 | 39.96790 | -120.03195 | 18889 ft | 445 kts | 332° |
| 2026-05-07 22:08 | 39.99590 | -120.05066 | 19733 ft | 450 kts | 332° |
| 2026-05-07 22:09 | 40.02506 | -120.07011 | 20576 ft | 456 kts | 332° |
| 2026-05-07 22:09 | 40.05441 | -120.08971 | 21383 ft | 461 kts | 332° |
| 2026-05-07 22:09 | 40.08400 | -120.10944 | 22181 ft | 466 kts | 332° |
| 2026-05-07 22:09 | 40.11409 | -120.12947 | 22983 ft | 471 kts | 332° |
| 2026-05-07 22:10 | 40.14481 | -120.14996 | 23792 ft | 476 kts | 332° |
| 2026-05-07 22:10 | 40.17542 | -120.17037 | 24564 ft | 482 kts | 332° |
| 2026-05-07 22:10 | 40.20668 | -120.19122 | 25273 ft | 487 kts | 332° |
| 2026-05-07 22:10 | 40.23886 | -120.21267 | 26018 ft | 492 kts | 332° |
| 2026-05-07 22:11 | 40.27169 | -120.23453 | 26944 ft | 493 kts | 333° |
| 2026-05-07 22:11 | 40.30527 | -120.25691 | 28000 ft | 491 kts | 333° |
| 2026-05-07 22:11 | 40.34031 | -120.28050 | 29169 ft | 488 kts | 332° |
| 2026-05-07 22:11 | 40.37423 | -120.30389 | 30263 ft | 485 kts | 331° |
| 2026-05-07 22:12 | 40.40757 | -120.32819 | 31287 ft | 481 kts | 330° |
| 2026-05-07 22:12 | 40.44208 | -120.35407 | 32245 ft | 479 kts | 329° |
| 2026-05-07 22:12 | 40.47642 | -120.38109 | 33162 ft | 476 kts | 329° |
| 2026-05-07 22:12 | 40.51019 | -120.40773 | 33975 ft | 472 kts | 329° |
| 2026-05-07 22:13 | 40.54371 | -120.43424 | 34082 ft | 470 kts | 329° |
| 2026-05-07 22:13 | 40.57628 | -120.45998 | 34098 ft | 467 kts | 329° |
| 2026-05-07 22:13 | 40.64312 | -120.51266 | 34213 ft | 468 kts | 329° |
| 2026-05-07 22:14 | 40.70935 | -120.56491 | 34230 ft | 469 kts | 329° |
| 2026-05-07 22:14 | 40.77556 | -120.61710 | 34230 ft | 468 kts | 329° |
| 2026-05-07 22:15 | 40.84150 | -120.66905 | 34230 ft | 467 kts | 328° |
| 2026-05-07 22:15 | 40.90822 | -120.72160 | 34230 ft | 467 kts | 328° |
| 2026-05-07 22:16 | 40.97533 | -120.77446 | 34226 ft | 467 kts | 328° |
| 2026-05-07 22:16 | 41.04138 | -120.82639 | 34228 ft | 468 kts | 329° |
| 2026-05-07 22:17 | 41.10751 | -120.87848 | 34229 ft | 467 kts | 328° |
| 2026-05-07 22:17 | 41.17483 | -120.93166 | 34227 ft | 467 kts | 328° |
| 2026-05-07 22:18 | 41.27346 | -121.01188 | 34227 ft | 467 kts | 328° |
| 2026-05-07 22:19 | 41.33900 | -121.06497 | 34222 ft | 468 kts | 328° |
| 2026-05-07 22:19 | 41.40505 | -121.11839 | 34216 ft | 467 kts | 328° |
| 2026-05-07 22:20 | 41.47075 | -121.17156 | 34208 ft | 466 kts | 328° |
| 2026-05-07 22:20 | 41.53624 | -121.22450 | 34201 ft | 466 kts | 328° |
| 2026-05-07 22:21 | 41.60194 | -121.27764 | 34193 ft | 466 kts | 328° |
| 2026-05-07 22:21 | 41.66714 | -121.33025 | 34192 ft | 467 kts | 328° |
| 2026-05-07 22:22 | 41.73272 | -121.38327 | 34184 ft | 466 kts | 328° |
| 2026-05-07 22:22 | 41.79846 | -121.43629 | 34179 ft | 466 kts | 328° |
| 2026-05-07 22:23 | 41.86292 | -121.48837 | 34178 ft | 466 kts | 328° |
| 2026-05-07 22:23 | 41.92809 | -121.54207 | 34178 ft | 465 kts | 327° |
| 2026-05-07 22:24 | 41.99316 | -121.59562 | 34183 ft | 465 kts | 328° |
| 2026-05-07 22:24 | 42.05826 | -121.64922 | 34198 ft | 465 kts | 328° |
| 2026-05-07 22:25 | 42.12405 | -121.70271 | 34215 ft | 466 kts | 330° |
| 2026-05-07 22:25 | 42.19271 | -121.74885 | 34222 ft | 467 kts | 334° |
| 2026-05-07 22:26 | 42.26302 | -121.78976 | 34229 ft | 466 kts | 335° |
| 2026-05-07 22:26 | 42.33375 | -121.83018 | 34227 ft | 466 kts | 335° |
| 2026-05-07 22:27 | 42.40434 | -121.87069 | 34218 ft | 466 kts | 335° |
| 2026-05-07 22:27 | 42.47458 | -121.91097 | 34202 ft | 465 kts | 335° |
| 2026-05-07 22:28 | 42.54527 | -121.95148 | 34194 ft | 464 kts | 335° |
| 2026-05-07 22:28 | 42.61512 | -121.99142 | 34192 ft | 465 kts | 335° |
| 2026-05-07 22:29 | 42.68472 | -122.03124 | 34189 ft | 465 kts | 335° |
| 2026-05-07 22:29 | 42.75539 | -122.07162 | 34192 ft | 465 kts | 335° |
| 2026-05-07 22:30 | 42.82583 | -122.11190 | 34200 ft | 465 kts | 335° |
| 2026-05-07 22:30 | 42.89619 | -122.15196 | 34203 ft | 465 kts | 336° |
| 2026-05-07 22:31 | 42.96851 | -122.18717 | 34209 ft | 466 kts | 338° |
| 2026-05-07 22:31 | 43.04099 | -122.22194 | 34207 ft | 465 kts | 339° |
| 2026-05-07 22:32 | 43.11324 | -122.25601 | 34202 ft | 465 kts | 338° |
| 2026-05-07 22:32 | 43.18661 | -122.29076 | 34193 ft | 464 kts | 338° |
| 2026-05-07 22:33 | 43.26016 | -122.32547 | 34181 ft | 464 kts | 338° |
| 2026-05-07 22:33 | 43.33323 | -122.35996 | 34169 ft | 464 kts | 339° |
| 2026-05-07 22:34 | 43.40628 | -122.39449 | 34161 ft | 464 kts | 338° |
| 2026-05-07 22:34 | 43.47899 | -122.42930 | 34147 ft | 464 kts | 338° |
| 2026-05-07 22:35 | 43.55228 | -122.46462 | 34149 ft | 464 kts | 338° |
| 2026-05-07 22:35 | 43.62497 | -122.50000 | 34145 ft | 465 kts | 339° |
| 2026-05-07 22:36 | 43.69714 | -122.53483 | 34130 ft | 464 kts | 338° |
| 2026-05-07 22:36 | 43.76896 | -122.56956 | 33905 ft | 465 kts | 338° |
| 2026-05-07 22:36 | 43.80541 | -122.58720 | 33136 ft | 466 kts | 337° |
| 2026-05-07 22:37 | 43.84195 | -122.60486 | 32405 ft | 462 kts | 339° |
| 2026-05-07 22:37 | 43.87770 | -122.62209 | 31693 ft | 461 kts | 337° |
| 2026-05-07 22:37 | 43.91299 | -122.63915 | 30985 ft | 464 kts | 338° |
| 2026-05-07 22:37 | 43.94945 | -122.65665 | 30255 ft | 469 kts | 338° |
| 2026-05-07 22:38 | 43.98192 | -122.67241 | 29595 ft | 473 kts | 338° |
| 2026-05-07 22:38 | 44.01698 | -122.68944 | 28887 ft | 477 kts | 338° |
| 2026-05-07 22:38 | 44.05379 | -122.70712 | 28138 ft | 477 kts | 338° |
| 2026-05-07 22:38 | 44.09133 | -122.72517 | 27524 ft | 478 kts | 338° |
| 2026-05-07 22:39 | 44.12935 | -122.74131 | 26960 ft | 484 kts | 345° |
| 2026-05-07 22:39 | 44.16881 | -122.74895 | 26331 ft | 491 kts | 354° |
| 2026-05-07 22:39 | 44.20756 | -122.74854 | 25484 ft | 496 kts | 1° |
| 2026-05-07 22:39 | 44.24612 | -122.74423 | 24624 ft | 495 kts | 2° |
| 2026-05-07 22:40 | 44.28567 | -122.73958 | 23765 ft | 490 kts | 1° |
| 2026-05-07 22:40 | 44.32518 | -122.73541 | 22926 ft | 484 kts | 1° |
| 2026-05-07 22:40 | 44.36341 | -122.73164 | 22126 ft | 479 kts | 1° |
| 2026-05-07 22:40 | 44.40096 | -122.72807 | 21349 ft | 473 kts | 1° |
| 2026-05-07 22:41 | 44.43943 | -122.72443 | 20568 ft | 466 kts | 1° |
| 2026-05-07 22:41 | 44.47715 | -122.72083 | 20286 ft | 457 kts | 1° |
| 2026-05-07 22:41 | 44.51375 | -122.71719 | 20134 ft | 439 kts | 1° |
| 2026-05-07 22:41 | 44.54897 | -122.71368 | 20101 ft | 418 kts | 1° |
| 2026-05-07 22:42 | 44.58266 | -122.71040 | 20100 ft | 398 kts | 0° |
| 2026-05-07 22:42 | 44.61513 | -122.70728 | 19513 ft | 396 kts | 0° |
| 2026-05-07 22:42 | 44.64784 | -122.70409 | 18864 ft | 395 kts | 1° |
| 2026-05-07 22:42 | 44.68052 | -122.70063 | 18050 ft | 387 kts | 1° |
| 2026-05-07 22:43 | 44.71181 | -122.69737 | 17432 ft | 372 kts | 1° |
| 2026-05-07 22:43 | 44.74189 | -122.69443 | 16860 ft | 358 kts | 0° |
| 2026-05-07 22:43 | 44.77102 | -122.69154 | 16316 ft | 345 kts | 0° |
| 2026-05-07 22:43 | 44.79898 | -122.68863 | 15864 ft | 331 kts | 0° |
| 2026-05-07 22:44 | 44.82591 | -122.68597 | 15395 ft | 327 kts | 360° |
| 2026-05-07 22:44 | 44.85022 | -122.68368 | 15051 ft | 329 kts | 360° |
| 2026-05-07 22:44 | 44.87436 | -122.68129 | 14459 ft | 333 kts | 0° |
| 2026-05-07 22:44 | 44.89890 | -122.67872 | 13866 ft | 332 kts | 0° |
| 2026-05-07 22:45 | 44.92295 | -122.67617 | 13325 ft | 327 kts | 0° |
| 2026-05-07 22:45 | 44.94678 | -122.67367 | 13002 ft | 316 kts | 2° |
| 2026-05-07 22:45 | 44.97078 | -122.66873 | 12964 ft | 307 kts | 8° |
| 2026-05-07 22:45 | 44.99368 | -122.66053 | 12547 ft | 304 kts | 12° |
| 2026-05-07 22:46 | 45.01640 | -122.65063 | 12155 ft | 298 kts | 13° |
| 2026-05-07 22:46 | 45.03963 | -122.64006 | 11791 ft | 296 kts | 13° |
| 2026-05-07 22:46 | 45.06282 | -122.62976 | 11402 ft | 292 kts | 13° |
| 2026-05-07 22:46 | 45.08585 | -122.61990 | 11043 ft | 290 kts | 12° |
| 2026-05-07 22:47 | 45.10795 | -122.60826 | 10720 ft | 291 kts | 25° |
| 2026-05-07 22:47 | 45.12708 | -122.58797 | 10314 ft | 296 kts | 44° |
| 2026-05-07 22:47 | 45.14238 | -122.56145 | 9873 ft | 296 kts | 52° |
| 2026-05-07 22:47 | 45.15593 | -122.53365 | 9427 ft | 295 kts | 52° |
| 2026-05-07 22:48 | 45.16957 | -122.50576 | 8984 ft | 292 kts | 51° |
| 2026-05-07 22:48 | 45.18336 | -122.47890 | 8565 ft | 289 kts | 50° |
| 2026-05-07 22:48 | 45.19764 | -122.45213 | 8151 ft | 287 kts | 50° |
| 2026-05-07 22:48 | 45.21166 | -122.42623 | 7756 ft | 282 kts | 50° |
| 2026-05-07 22:49 | 45.22533 | -122.40136 | 7638 ft | 268 kts | 44° |
| 2026-05-07 22:49 | 45.24052 | -122.38367 | 7642 ft | 252 kts | 26° |
| 2026-05-07 22:49 | 45.25815 | -122.37403 | 7240 ft | 245 kts | 11° |
| 2026-05-07 22:49 | 45.27663 | -122.36852 | 6926 ft | 237 kts | 7° |
| 2026-05-07 22:50 | 45.29499 | -122.36404 | 6626 ft | 236 kts | 7° |
| 2026-05-07 22:50 | 45.31355 | -122.35906 | 6309 ft | 237 kts | 9° |
| 2026-05-07 22:50 | 45.33172 | -122.35345 | 5978 ft | 237 kts | 11° |
| 2026-05-07 22:50 | 45.34925 | -122.34754 | 5649 ft | 227 kts | 12° |
| 2026-05-07 22:51 | 45.36651 | -122.34155 | 5396 ft | 213 kts | 12° |
| 2026-05-07 22:51 | 45.38186 | -122.33628 | 5213 ft | 208 kts | 12° |
| 2026-05-07 22:51 | 45.39784 | -122.33095 | 4980 ft | 208 kts | 11° |
| 2026-05-07 22:51 | 45.41344 | -122.32581 | 4720 ft | 207 kts | 11° |
| 2026-05-07 22:52 | 45.42958 | -122.32048 | 4444 ft | 205 kts | 11° |
| 2026-05-07 22:52 | 45.44578 | -122.31509 | 4164 ft | 204 kts | 12° |
| 2026-05-07 22:52 | 45.46173 | -122.31045 | 3852 ft | 197 kts | 359° |
| 2026-05-07 22:52 | 45.47553 | -122.31773 | 3649 ft | 176 kts | 318° |
| 2026-05-07 22:53 | 45.48448 | -122.33289 | 3491 ft | 170 kts | 301° |
| 2026-05-07 22:53 | 45.49102 | -122.34988 | 3312 ft | 169 kts | 296° |
| 2026-05-07 22:53 | 45.49688 | -122.36684 | 3160 ft | 170 kts | 296° |
| 2026-05-07 22:53 | 45.50283 | -122.38381 | 2974 ft | 169 kts | 297° |
| 2026-05-07 22:54 | 45.50900 | -122.40033 | 2834 ft | 169 kts | 299° |
| 2026-05-07 22:54 | 45.51535 | -122.41666 | 2580 ft | 170 kts | 300° |
| 2026-05-07 22:54 | 45.52169 | -122.43277 | 2344 ft | 166 kts | 300° |
| 2026-05-07 22:54 | 45.52790 | -122.44854 | 2119 ft | 166 kts | 300° |
| 2026-05-07 22:55 | 45.53400 | -122.46411 | 1881 ft | 165 kts | 300° |
| 2026-05-07 22:55 | 45.54018 | -122.47998 | 1639 ft | 165 kts | 300° |
| 2026-05-07 22:55 | 45.54824 | -122.50072 | 1330 ft | 164 kts | 300° |
| 2026-05-07 22:55 | 45.55232 | -122.51125 | 1172 ft | 163 kts | 300° |
| 2026-05-07 22:56 | 45.55850 | -122.52722 | 910 ft | 164 kts | 300° |
| 2026-05-07 22:56 | 45.56458 | -122.54291 | 688 ft | 163 kts | 300° |
| 2026-05-07 22:56 | 45.57062 | -122.55836 | 460 ft | 164 kts | 300° |
| 2026-05-07 22:56 | 45.57655 | -122.57368 | 225 ft | 164 kts | 299° |
| 2026-05-07 22:57 | 45.58238 | -122.58890 | 32 ft | 160 kts | 299° |
| 2026-05-07 22:57 | 45.58719 | -122.60104 | 30 ft | 85 kts | 300° |
| 2026-05-07 22:57 | 45.58890 | -122.60562 | 31 ft | 26 kts | 278° |
| 2026-05-07 22:57 | 45.58791 | -122.60712 | 30 ft | 20 kts | 208° |
| 2026-05-07 22:58 | 45.58742 | -122.60760 | 30 ft | 0 kts | 219° |
| 2026-05-07 22:58 | 45.58736 | -122.60767 | 30 ft | 3 kts | 219° |
| 2026-05-07 22:59 | 45.58695 | -122.60820 | 30 ft | 11 kts | 224° |
| 2026-05-07 22:59 | 45.58613 | -122.60938 | 30 ft | 19 kts | 226° |
| 2026-05-07 22:59 | 45.58489 | -122.61115 | 30 ft | 27 kts | 225° |
| 2026-05-07 22:59 | 45.58346 | -122.61318 | 30 ft | 18 kts | 223° |
| 2026-05-07 23:00 | 45.58223 | -122.61294 | 30 ft | 19 kts | 133° |
| 2026-05-07 23:00 | 45.58178 | -122.61218 | 30 ft | 5 kts | 130° |
| 2026-05-07 23:00 | 45.58145 | -122.61166 | 30 ft | 7 kts | 133° |
| 2026-05-07 23:00 | 45.58096 | -122.61095 | 30 ft | 10 kts | 136° |
| 2026-05-07 23:01 | 45.58050 | -122.61014 | 30 ft | 8 kts | 96° |
| 2026-05-07 23:01 | 45.58079 | -122.60944 | 29 ft | 4 kts | 47° |
| 2026-05-07 23:01 | 45.58091 | -122.60927 | 29 ft | 0 kts | 47° |